createdAt,value
2022-08-11T00:01:05.565Z,16.19
2022-08-11T00:03:22.677Z,16.20
2022-08-11T00:05:59.219Z,16.12
2022-08-11T00:08:16.395Z,16.12
2022-08-11T00:10:33.524Z,16.11
2022-08-11T00:12:50.834Z,16.01
2022-08-11T00:15:07.961Z,15.94
2022-08-11T00:17:26.245Z,15.88
2022-08-11T00:20:11.733Z,15.94
2022-08-11T00:22:20.594Z,15.92
2022-08-11T00:24:52.038Z,15.89
2022-08-11T00:27:14.318Z,15.84
2022-08-11T00:29:31.703Z,15.76
2022-08-11T00:31:49.778Z,15.69
2022-08-11T00:34:07.212Z,15.64
2022-08-11T00:36:25.657Z,15.62
2022-08-11T00:38:43.073Z,15.59
2022-08-11T00:41:00.175Z,15.54
2022-08-11T00:43:20.156Z,15.50
2022-08-11T00:45:38.086Z,15.48
2022-08-11T00:47:55.482Z,15.44
2022-08-11T00:50:17.199Z,15.40
2022-08-11T00:52:34.190Z,15.37
2022-08-11T00:54:52.477Z,15.33
2022-08-11T00:57:37.079Z,15.32
2022-08-11T00:59:48.611Z,15.25
2022-08-11T01:02:05.583Z,15.22
2022-08-11T01:04:22.576Z,15.20
2022-08-11T01:06:39.887Z,15.21
2022-08-11T01:08:57.040Z,15.15
2022-08-11T01:11:15.115Z,15.16
2022-08-11T01:13:32.064Z,15.10
2022-08-11T01:15:57.484Z,15.08
2022-08-11T01:18:14.936Z,15.02
2022-08-11T01:20:48.517Z,15.01
2022-08-11T01:23:07.368Z,14.97
2022-08-11T01:25:24.455Z,14.96
2022-08-11T01:27:41.769Z,14.90
2022-08-11T01:29:58.868Z,14.87
2022-08-11T01:32:15.834Z,14.82
2022-08-11T01:34:33.973Z,14.79
2022-08-11T01:36:56.534Z,14.80
2022-08-11T01:39:18.636Z,14.74
2022-08-11T01:41:35.909Z,14.71
2022-08-11T01:43:53.316Z,14.66
2022-08-11T01:46:10.394Z,14.64
2022-08-11T01:48:27.851Z,14.61
2022-08-11T01:50:45.333Z,14.61
2022-08-11T01:53:02.359Z,14.60
2022-08-11T01:55:19.804Z,14.60
2022-08-11T01:57:36.820Z,14.59
2022-08-11T01:59:54.242Z,14.53
2022-08-11T02:02:11.434Z,14.50
2022-08-11T02:04:37.638Z,14.49
2022-08-11T02:06:55.667Z,14.45
2022-08-11T02:09:12.715Z,14.44
2022-08-11T02:11:30.333Z,14.41
2022-08-11T02:13:47.387Z,14.38
2022-08-11T02:16:06.294Z,14.31
2022-08-11T02:18:26.507Z,14.27
2022-08-11T02:20:44.466Z,14.28
2022-08-11T02:23:01.899Z,14.31
2022-08-11T02:25:19.255Z,14.29
2022-08-11T02:27:36.224Z,14.24
2022-08-11T02:29:53.294Z,14.19
2022-08-11T02:32:25.283Z,14.11
2022-08-11T02:34:59.883Z,14.12
2022-08-11T02:37:23.583Z,14.07
2022-08-11T02:39:40.925Z,14.01
2022-08-11T02:41:58.182Z,13.97
2022-08-11T02:44:15.285Z,13.94
2022-08-11T02:46:32.616Z,13.92
2022-08-11T02:48:49.732Z,13.88
2022-08-11T02:51:07.190Z,13.84
2022-08-11T02:53:24.341Z,13.81
2022-08-11T02:55:48.748Z,13.81
2022-08-11T02:58:16.022Z,13.74
2022-08-11T03:00:32.960Z,13.75
2022-08-11T03:02:50.929Z,13.72
2022-08-11T03:05:08.246Z,13.70
2022-08-11T03:07:28.912Z,13.66
2022-08-11T03:09:46.903Z,13.65
2022-08-11T03:12:04.007Z,13.60
2022-08-11T03:14:21.273Z,13.61
2022-08-11T03:16:38.360Z,13.57
2022-08-11T03:18:55.477Z,13.60
2022-08-11T03:21:12.765Z,13.52
2022-08-11T03:23:30.815Z,13.46
2022-08-11T03:25:48.213Z,13.44
2022-08-11T03:28:05.229Z,13.36
2022-08-11T03:30:22.612Z,13.35
2022-08-11T03:32:39.753Z,13.32
2022-08-11T03:34:56.858Z,13.26
2022-08-11T03:37:16.506Z,13.34
2022-08-11T03:39:34.792Z,13.32
2022-08-11T03:42:04.200Z,13.25
2022-08-11T03:44:24.089Z,13.19
2022-08-11T03:46:41.038Z,13.17
2022-08-11T03:48:58.055Z,13.17
2022-08-11T03:51:16.351Z,13.14
2022-08-11T03:53:33.690Z,13.13
2022-08-11T03:55:50.806Z,13.13
2022-08-11T03:58:07.893Z,13.10
2022-08-11T04:00:24.880Z,13.14
2022-08-11T04:02:42.209Z,13.07
2022-08-11T04:04:59.407Z,13.04
2022-08-11T04:07:17.787Z,12.99
2022-08-11T04:09:37.559Z,12.96
2022-08-11T04:11:54.863Z,12.96
2022-08-11T04:14:11.947Z,12.93
2022-08-11T04:16:28.964Z,12.95
2022-08-11T04:18:45.960Z,12.90
2022-08-11T04:21:03.365Z,12.88
2022-08-11T04:24:34.740Z,12.86
2022-08-11T04:25:57.982Z,12.86
2022-08-11T04:28:29.190Z,12.84
2022-08-11T04:30:48.408Z,12.82
2022-08-11T04:33:05.375Z,12.78
2022-08-11T04:35:22.724Z,12.79
2022-08-11T04:37:40.025Z,12.76
2022-08-11T04:39:59.445Z,12.79
2022-08-11T04:42:16.516Z,12.83
2022-08-11T04:44:33.747Z,12.87
2022-08-11T04:46:50.791Z,12.85
2022-08-11T04:49:07.743Z,12.82
2022-08-11T04:51:25.072Z,12.86
2022-08-11T04:53:42.082Z,12.92
2022-08-11T04:55:59.156Z,12.89
2022-08-11T04:58:16.436Z,12.81
2022-08-11T05:00:33.703Z,12.79
2022-08-11T05:02:50.736Z,12.80
2022-08-11T05:05:07.968Z,12.79
2022-08-11T05:07:24.941Z,12.81
2022-08-11T05:09:42.003Z,12.83
2022-08-11T05:12:01.783Z,12.91
2022-08-11T05:14:19.132Z,12.92
2022-08-11T05:16:39.934Z,12.92
2022-08-11T05:18:56.925Z,12.98
2022-08-11T05:21:14.304Z,13.03
2022-08-11T05:23:31.364Z,13.03
2022-08-11T05:26:45.381Z,13.00
2022-08-11T05:28:25.989Z,13.00
2022-08-11T05:30:43.050Z,13.02
2022-08-11T05:33:02.228Z,13.06
2022-08-11T05:36:01.948Z,13.12
2022-08-11T05:37:56.801Z,13.14
2022-08-11T05:40:13.756Z,13.20
2022-08-11T05:42:31.054Z,13.21
2022-08-11T05:44:48.507Z,13.21
2022-08-11T05:47:05.899Z,13.26
2022-08-11T05:49:22.857Z,13.28
2022-08-11T05:51:39.858Z,13.41
2022-08-11T05:54:28.259Z,13.52
2022-08-11T05:56:47.396Z,13.67
2022-08-11T05:59:05.434Z,13.79
2022-08-11T06:01:22.818Z,13.98
2022-08-11T06:03:39.785Z,14.20
2022-08-11T06:06:15.744Z,14.35
2022-08-11T06:08:32.861Z,14.49
2022-08-11T06:10:49.912Z,14.65
2022-08-11T06:13:07.080Z,14.81
2022-08-11T06:15:24.115Z,14.92
2022-08-11T06:17:41.391Z,15.08
2022-08-11T06:20:05.566Z,15.17
2022-08-11T06:22:24.498Z,15.29
2022-08-11T06:24:42.357Z,15.44
2022-08-11T06:27:12.431Z,15.62
2022-08-11T06:29:37.473Z,15.72
2022-08-11T06:31:55.256Z,15.90
2022-08-11T06:34:12.594Z,16.05
2022-08-11T06:36:44.507Z,16.20
2022-08-11T06:39:01.595Z,16.33
2022-08-11T06:41:18.977Z,16.46
2022-08-11T06:43:36.051Z,16.60
2022-08-11T06:45:53.036Z,16.70
2022-08-11T06:48:10.035Z,16.83
2022-08-11T06:50:27.072Z,16.98
2022-08-11T06:52:44.494Z,17.14
2022-08-11T06:55:01.591Z,17.23
2022-08-11T06:57:33.906Z,17.37
2022-08-11T06:59:50.933Z,17.53
2022-08-11T07:02:08.272Z,17.68
2022-08-11T07:04:25.539Z,17.81
2022-08-11T07:06:50.647Z,17.95
2022-08-11T07:09:08.290Z,18.08
2022-08-11T07:11:25.391Z,18.22
2022-08-11T07:13:45.545Z,18.36
2022-08-11T07:16:12.389Z,18.52
2022-08-11T07:18:30.517Z,18.74
2022-08-11T07:20:47.762Z,18.89
2022-08-11T07:23:04.716Z,19.09
2022-08-11T07:25:21.729Z,19.24
2022-08-11T07:27:38.786Z,19.45
2022-08-11T07:29:55.863Z,19.65
2022-08-11T07:32:13.060Z,19.78
2022-08-11T07:34:30.136Z,19.99
2022-08-11T07:36:48.099Z,20.17
2022-08-11T07:39:05.063Z,20.34
2022-08-11T07:41:23.377Z,20.56
2022-08-11T07:43:40.338Z,20.78
2022-08-11T07:45:57.577Z,21.00
2022-08-11T07:48:14.891Z,21.30
2022-08-11T07:50:31.834Z,21.62
2022-08-11T07:52:52.780Z,21.81
2022-08-11T07:55:11.948Z,21.99
2022-08-11T07:57:47.243Z,22.27
2022-08-11T08:00:05.764Z,22.52
2022-08-11T08:02:23.847Z,22.70
2022-08-11T08:04:47.477Z,22.93
2022-08-11T08:07:04.635Z,23.14
2022-08-11T08:09:23.638Z,23.36
2022-08-11T08:11:40.676Z,23.55
2022-08-11T08:13:57.907Z,23.74
2022-08-11T08:16:14.990Z,24.01
2022-08-11T08:18:32.515Z,24.17
2022-08-11T08:20:49.486Z,24.31
2022-08-11T08:23:07.738Z,24.50
2022-08-11T08:25:24.866Z,24.56
2022-08-11T08:27:41.931Z,24.77
2022-08-11T08:29:58.948Z,24.92
2022-08-11T08:32:15.920Z,25.07
2022-08-11T08:34:34.003Z,25.18
2022-08-11T08:36:51.311Z,25.23
2022-08-11T08:39:10.850Z,25.38
2022-08-11T08:41:28.108Z,25.54
2022-08-11T08:43:48.752Z,25.60
2022-08-11T08:46:06.487Z,25.78
2022-08-11T08:48:23.978Z,26.02
2022-08-11T08:50:40.903Z,26.07
2022-08-11T08:53:04.116Z,26.19
2022-08-11T08:55:21.128Z,26.21
2022-08-11T08:57:39.710Z,26.36
2022-08-11T08:59:58.533Z,26.56
2022-08-11T09:02:16.902Z,26.69
2022-08-11T09:04:34.072Z,26.66
2022-08-11T09:06:52.372Z,26.76
2022-08-11T09:09:10.273Z,26.97
2022-08-11T09:11:27.247Z,27.10
2022-08-11T09:13:44.655Z,27.18
2022-08-11T09:16:03.552Z,27.30
2022-08-11T09:18:20.790Z,27.29
2022-08-11T09:20:38.059Z,27.41
2022-08-11T09:23:29.546Z,27.54
2022-08-11T09:25:33.017Z,27.46
2022-08-11T09:27:51.280Z,27.51
2022-08-11T09:30:08.643Z,27.70
2022-08-11T09:32:26.856Z,27.84
2022-08-11T09:34:44.195Z,27.80
2022-08-11T09:37:01.247Z,28.07
2022-08-11T09:39:19.320Z,28.16
2022-08-11T09:42:00.969Z,28.28
2022-08-11T09:44:13.653Z,28.39
2022-08-11T09:46:30.694Z,28.37
2022-08-11T09:48:48.016Z,28.44
2022-08-11T09:51:04.949Z,28.54
2022-08-11T09:53:37.468Z,28.67
2022-08-11T09:55:57.929Z,28.70
2022-08-11T09:58:42.725Z,28.92
2022-08-11T10:00:53.445Z,28.83
2022-08-11T10:03:11.473Z,29.01
2022-08-11T10:05:28.699Z,29.00
2022-08-11T10:07:45.987Z,29.14
2022-08-11T10:10:04.116Z,29.27
2022-08-11T10:12:21.098Z,29.26
2022-08-11T10:14:42.538Z,29.34
2022-08-11T10:17:01.777Z,29.26
2022-08-11T10:19:18.898Z,29.28
2022-08-11T10:21:36.891Z,29.36
2022-08-11T10:24:01.004Z,29.36
2022-08-11T10:26:22.922Z,29.15
2022-08-11T10:29:02.182Z,29.26
2022-08-11T10:31:17.235Z,29.56
2022-08-11T10:33:37.926Z,29.69
2022-08-11T10:35:55.574Z,29.93
2022-08-11T10:38:12.947Z,29.81
2022-08-11T10:40:30.203Z,30.03
2022-08-11T10:42:57.916Z,30.09
2022-08-11T10:45:15.226Z,30.35
2022-08-11T10:47:32.531Z,30.30
2022-08-11T10:49:49.515Z,30.27
2022-08-11T10:52:06.638Z,30.41
2022-08-11T10:54:25.185Z,30.11
2022-08-11T10:56:42.475Z,30.07
2022-08-11T10:59:03.455Z,30.32
2022-08-11T11:01:21.932Z,30.38
2022-08-11T11:03:39.241Z,30.32
2022-08-11T11:06:12.665Z,30.56
2022-08-11T11:08:33.331Z,30.61
2022-08-11T11:10:50.263Z,30.38
2022-08-11T11:13:07.221Z,30.43
2022-08-11T11:15:24.438Z,30.63
2022-08-11T11:17:41.378Z,30.65
2022-08-11T11:19:58.652Z,30.52
2022-08-11T11:22:15.668Z,30.68
2022-08-11T11:24:32.925Z,30.77
2022-08-11T11:26:50.267Z,30.67
2022-08-11T11:29:07.609Z,30.71
2022-08-11T11:31:24.572Z,31.11
2022-08-11T11:34:06.948Z,31.10
2022-08-11T11:36:18.981Z,31.03
2022-08-11T11:38:37.738Z,31.19
2022-08-11T11:40:55.132Z,31.14
2022-08-11T11:43:12.380Z,31.18
2022-08-11T11:45:29.442Z,31.12
2022-08-11T11:47:46.499Z,31.08
2022-08-11T11:50:03.633Z,31.16
2022-08-11T11:52:20.634Z,31.19
2022-08-11T11:54:38.569Z,31.24
2022-08-11T11:56:55.595Z,31.21
2022-08-11T11:59:12.867Z,31.37
2022-08-11T12:01:32.068Z,31.68
2022-08-11T12:03:49.013Z,31.62
2022-08-11T12:06:06.251Z,31.78
2022-08-11T12:08:27.231Z,31.86
2022-08-11T12:10:45.090Z,31.87
2022-08-11T12:13:02.408Z,31.90
2022-08-11T12:16:03.657Z,32.18
2022-08-11T12:17:57.263Z,32.18
2022-08-11T12:20:31.774Z,32.20
2022-08-11T12:22:51.856Z,32.25
2022-08-11T12:25:10.450Z,32.18
2022-08-11T12:27:28.727Z,32.03
2022-08-11T12:29:52.888Z,32.02
2022-08-11T12:32:12.318Z,32.07
2022-08-11T12:34:29.633Z,31.98
2022-08-11T12:36:46.811Z,31.83
2022-08-11T12:39:06.147Z,31.91
2022-08-11T12:41:40.582Z,31.95
2022-08-11T12:43:57.704Z,31.92
2022-08-11T12:46:17.694Z,32.02
2022-08-11T12:48:59.078Z,32.04
2022-08-11T12:51:12.512Z,32.05
2022-08-11T12:53:31.703Z,32.00
2022-08-11T12:56:07.446Z,32.09
2022-08-11T12:58:26.195Z,32.06
2022-08-11T13:00:43.548Z,32.13
2022-08-11T13:03:00.873Z,32.33
2022-08-11T13:05:18.205Z,32.19
2022-08-11T13:07:49.984Z,32.48
2022-08-11T13:10:16.915Z,32.54
2022-08-11T13:12:35.373Z,32.71
2022-08-11T13:14:52.795Z,32.61
2022-08-11T13:17:09.972Z,32.38
2022-08-11T13:19:27.291Z,32.42
2022-08-11T13:21:44.204Z,32.18
2022-08-11T13:24:03.310Z,32.34
2022-08-11T13:26:24.866Z,32.43
2022-08-11T13:28:57.852Z,32.63
2022-08-11T13:31:14.789Z,32.56
2022-08-11T13:33:32.783Z,32.54
2022-08-11T13:35:49.869Z,32.64
2022-08-11T13:38:18.660Z,32.74
2022-08-11T13:40:54.844Z,32.74
2022-08-11T13:43:13.239Z,32.65
2022-08-11T13:45:33.043Z,32.61
2022-08-11T13:47:50.312Z,32.75
2022-08-11T13:50:07.391Z,32.57
2022-08-11T13:52:24.507Z,32.45
2022-08-11T13:54:41.471Z,32.19
2022-08-11T13:56:58.533Z,32.20
2022-08-11T13:59:15.978Z,32.36
2022-08-11T14:02:21.494Z,32.39
2022-08-11T14:04:30.982Z,32.42
2022-08-11T14:06:48.035Z,32.53
2022-08-11T14:09:05.017Z,32.69
2022-08-11T14:12:23.867Z,32.64
2022-08-11T14:14:00.333Z,32.48
2022-08-11T14:16:17.396Z,32.41
2022-08-11T14:18:34.764Z,32.41
2022-08-11T14:20:53.113Z,32.44
2022-08-11T14:23:10.416Z,32.56
2022-08-11T14:25:59.571Z,32.62
2022-08-11T14:28:33.491Z,32.77
2022-08-11T14:30:41.629Z,32.64
2022-08-11T14:32:59.809Z,32.62
2022-08-11T14:35:17.186Z,32.64
2022-08-11T14:37:34.423Z,32.78
2022-08-11T14:39:51.752Z,32.79
2022-08-11T14:42:13.226Z,32.80
2022-08-11T14:44:30.622Z,32.89
2022-08-11T14:46:47.677Z,32.93
2022-08-11T14:49:04.647Z,32.95
2022-08-11T14:51:21.659Z,32.94
2022-08-11T14:53:41.180Z,32.94
2022-08-11T14:56:16.023Z,33.01
2022-08-11T14:58:33.100Z,32.98
2022-08-11T15:00:50.645Z,32.88
2022-08-11T15:03:08.856Z,32.68
2022-08-11T15:05:26.822Z,32.53
2022-08-11T15:07:43.841Z,32.59
2022-08-11T15:10:16.284Z,32.57
2022-08-11T15:12:34.218Z,32.76
2022-08-11T15:14:55.896Z,32.93
2022-08-11T15:17:13.357Z,32.91
2022-08-11T15:19:41.082Z,33.03
2022-08-11T15:21:58.289Z,33.07
2022-08-11T15:24:15.295Z,32.95
2022-08-11T15:26:32.639Z,33.14
2022-08-11T15:28:50.797Z,32.97
2022-08-11T15:31:08.039Z,32.94
2022-08-11T15:33:25.489Z,32.49
2022-08-11T15:35:42.628Z,32.54
2022-08-11T15:37:59.956Z,32.48
2022-08-11T15:40:30.171Z,32.41
2022-08-11T15:42:49.193Z,32.50
2022-08-11T15:45:06.459Z,32.34
2022-08-11T15:47:23.557Z,32.25
2022-08-11T15:50:10.759Z,32.35
2022-08-11T15:52:18.152Z,32.55
2022-08-11T15:54:35.195Z,32.47
2022-08-11T15:56:52.491Z,32.51
2022-08-11T15:59:10.610Z,32.38
2022-08-11T16:01:46.772Z,32.28
2022-08-11T16:04:07.693Z,32.01
2022-08-11T16:06:25.876Z,32.06
2022-08-11T16:08:44.901Z,31.95
2022-08-11T16:11:01.973Z,31.96
2022-08-11T16:13:20.888Z,32.00
2022-08-11T16:15:37.925Z,32.06
2022-08-11T16:17:54.994Z,32.12
2022-08-11T16:20:12.287Z,32.27
2022-08-11T16:22:29.291Z,32.25
2022-08-11T16:27:01.641Z,32.13
2022-08-11T16:27:32.129Z,32.09
2022-08-11T16:29:49.491Z,32.05
2022-08-11T16:32:07.694Z,31.98
2022-08-11T16:34:25.178Z,31.94
2022-08-11T16:36:42.190Z,31.83
2022-08-11T16:39:00.090Z,31.84
2022-08-11T16:41:17.023Z,31.78
2022-08-11T16:43:34.402Z,31.75
2022-08-11T16:45:51.665Z,31.56
2022-08-11T16:48:35.194Z,31.55
2022-08-11T16:50:47.599Z,31.51
2022-08-11T16:53:04.635Z,31.43
2022-08-11T16:55:51.294Z,31.47
2022-08-11T16:57:58.722Z,31.32
2022-08-11T17:00:15.759Z,31.35
2022-08-11T17:02:33.025Z,31.34
2022-08-11T17:04:50.248Z,31.32
2022-08-11T17:07:23.588Z,31.29
2022-08-11T17:09:44.426Z,31.22
2022-08-11T17:12:01.549Z,31.17
2022-08-11T17:14:18.902Z,31.09
2022-08-11T17:16:53.595Z,31.07
2022-08-11T17:19:10.575Z,31.00
2022-08-11T17:21:27.780Z,30.94
2022-08-11T17:23:44.797Z,30.83
2022-08-11T17:26:04.247Z,30.69
2022-08-11T17:28:24.415Z,30.55
2022-08-11T17:30:42.551Z,30.35
2022-08-11T17:33:00.132Z,30.17
2022-08-11T17:35:18.277Z,29.97
2022-08-11T17:37:36.446Z,29.79
2022-08-11T17:39:53.607Z,29.62
2022-08-11T17:42:11.750Z,29.49
2022-08-11T17:44:29.832Z,29.38
2022-08-11T17:46:47.151Z,29.26
2022-08-11T17:49:04.411Z,29.20
2022-08-11T17:51:22.090Z,29.10
2022-08-11T17:53:39.382Z,29.02
2022-08-11T17:55:57.718Z,28.91
2022-08-11T17:58:15.402Z,28.78
2022-08-11T18:00:33.398Z,28.66
2022-08-11T18:02:50.463Z,28.50
2022-08-11T18:05:12.750Z,28.36
2022-08-11T18:07:30.449Z,28.21
2022-08-11T18:09:47.530Z,28.02
2022-08-11T18:12:10.057Z,27.87
2022-08-11T18:14:28.569Z,27.63
2022-08-11T18:16:46.503Z,27.43
2022-08-11T18:19:03.475Z,27.25
2022-08-11T18:21:20.519Z,27.11
2022-08-11T18:23:45.741Z,26.92
2022-08-11T18:26:07.104Z,26.73
2022-08-11T18:28:26.216Z,26.53
2022-08-11T18:30:45.126Z,26.38
2022-08-11T18:33:39.817Z,26.22
2022-08-11T18:35:39.321Z,26.08
2022-08-11T18:37:56.568Z,25.93
2022-08-11T18:40:13.917Z,25.81
2022-08-11T18:42:30.906Z,25.59
2022-08-11T18:44:47.862Z,25.45
2022-08-11T18:47:08.046Z,25.31
2022-08-11T18:49:31.686Z,25.22
2022-08-11T18:52:05.066Z,25.05
2022-08-11T18:54:23.199Z,24.87
2022-08-11T18:56:40.242Z,24.77
2022-08-11T18:58:58.722Z,24.61
2022-08-11T19:01:16.062Z,24.47
2022-08-11T19:03:43.306Z,24.29
2022-08-11T19:06:37.693Z,24.19
2022-08-11T19:08:43.083Z,24.10
2022-08-11T19:11:00.420Z,23.98
2022-08-11T19:13:17.399Z,23.84
2022-08-11T19:15:34.465Z,23.74
2022-08-11T19:17:51.786Z,23.64
2022-08-11T19:20:08.742Z,23.56
2022-08-11T19:22:25.757Z,23.45
2022-08-11T19:24:42.868Z,23.30
2022-08-11T19:27:00.622Z,23.20
2022-08-11T19:30:07.057Z,23.13
2022-08-11T19:31:54.593Z,23.04
2022-08-11T19:34:11.584Z,22.94
2022-08-11T19:36:28.915Z,22.86
2022-08-11T19:38:46.156Z,22.75
2022-08-11T19:41:03.215Z,22.66
2022-08-11T19:43:23.795Z,22.57
2022-08-11T19:45:43.417Z,22.48
2022-08-11T19:48:30.782Z,22.36
2022-08-11T19:50:44.643Z,22.29
2022-08-11T19:53:02.604Z,22.20
2022-08-11T19:55:33.953Z,22.11
2022-08-11T19:57:51.061Z,22.00
2022-08-11T20:00:07.990Z,21.92
2022-08-11T20:02:25.192Z,21.87
2022-08-11T20:04:43.247Z,21.80
2022-08-11T20:07:03.043Z,21.76
2022-08-11T20:09:20.057Z,21.69
2022-08-11T20:11:37.396Z,21.59
2022-08-11T20:13:54.452Z,21.61
2022-08-11T20:16:11.581Z,21.50
2022-08-11T20:18:28.593Z,21.40
2022-08-11T20:20:46.813Z,21.29
2022-08-11T20:23:06.130Z,21.23
2022-08-11T20:25:23.118Z,21.12
2022-08-11T20:27:40.445Z,21.03
2022-08-11T20:29:57.497Z,20.95
2022-08-11T20:32:14.466Z,20.90
2022-08-11T20:34:31.542Z,20.82
2022-08-11T20:36:54.545Z,20.71
2022-08-11T20:39:11.858Z,20.67
2022-08-11T20:41:28.869Z,20.64
2022-08-11T20:44:06.709Z,20.60
2022-08-11T20:46:22.919Z,20.57
2022-08-11T20:48:41.693Z,20.49
2022-08-11T20:50:59.021Z,20.39
2022-08-11T20:53:16.152Z,20.27
2022-08-11T20:55:51.684Z,20.24
2022-08-11T20:58:17.816Z,20.16
2022-08-11T21:00:39.191Z,20.07
2022-08-11T21:02:56.887Z,20.02
2022-08-11T21:06:04.720Z,19.96
2022-08-11T21:07:55.535Z,19.88
2022-08-11T21:10:23.451Z,19.79
2022-08-11T21:12:41.413Z,19.73
2022-08-11T21:14:58.666Z,19.70
2022-08-11T21:17:27.209Z,19.62
2022-08-11T21:20:01.302Z,19.59
2022-08-11T21:22:28.058Z,19.51
2022-08-11T21:24:48.018Z,19.48
2022-08-11T21:27:05.422Z,19.45
2022-08-11T21:29:22.384Z,19.38
2022-08-11T21:31:39.544Z,19.32
2022-08-11T21:33:56.636Z,19.19
2022-08-11T21:36:13.737Z,19.15
2022-08-11T21:38:30.904Z,19.14
2022-08-11T21:40:48.260Z,19.07
2022-08-11T21:43:05.311Z,19.06
2022-08-11T21:45:22.571Z,19.03
2022-08-11T21:47:43.453Z,18.98
2022-08-11T21:50:01.208Z,18.91
2022-08-11T21:52:18.325Z,18.83
2022-08-11T21:54:35.610Z,18.76
2022-08-11T21:56:54.176Z,18.71
2022-08-11T21:59:11.885Z,18.66
2022-08-11T22:01:28.892Z,18.65
2022-08-11T22:03:51.671Z,18.59
2022-08-11T22:06:08.780Z,18.50
2022-08-11T22:08:26.086Z,18.52
2022-08-11T22:10:43.275Z,18.41
2022-08-11T22:13:00.256Z,18.36
2022-08-11T22:15:17.480Z,18.32
2022-08-11T22:17:34.462Z,18.29
2022-08-11T22:19:51.510Z,18.21
2022-08-11T22:22:09.527Z,18.16
2022-08-11T22:24:30.239Z,18.14
2022-08-11T22:26:47.798Z,18.11
2022-08-11T22:29:04.714Z,18.03
2022-08-11T22:31:21.766Z,17.95
2022-08-11T22:33:42.063Z,17.96
2022-08-11T22:36:15.997Z,17.87
2022-08-11T22:38:33.580Z,17.83
2022-08-11T22:40:52.217Z,17.80
2022-08-11T22:43:09.765Z,17.73
2022-08-11T22:45:27.004Z,17.66
2022-08-11T22:47:44.916Z,17.68
2022-08-11T22:50:02.313Z,17.63
2022-08-11T22:52:19.357Z,17.55
2022-08-11T22:54:36.507Z,17.55
2022-08-11T22:56:53.704Z,17.48
2022-08-11T22:59:10.670Z,17.42
2022-08-11T23:01:31.215Z,17.44
2022-08-11T23:03:48.363Z,17.38
2022-08-11T23:06:05.389Z,17.37
2022-08-11T23:08:22.726Z,17.28
2022-08-11T23:10:39.692Z,17.35
2022-08-11T23:12:56.970Z,17.23
2022-08-11T23:15:16.132Z,17.13
2022-08-11T23:17:33.163Z,17.08
2022-08-11T23:20:09.145Z,17.05
2022-08-11T23:22:36.975Z,17.05
2022-08-11T23:25:04.719Z,17.00
2022-08-11T23:27:21.656Z,16.96
2022-08-11T23:29:38.780Z,16.91
2022-08-11T23:31:55.821Z,16.91
2022-08-11T23:34:41.561Z,16.84
2022-08-11T23:36:50.189Z,16.79
2022-08-11T23:39:07.287Z,16.69
2022-08-11T23:41:24.305Z,16.65
2022-08-11T23:43:41.649Z,16.63
2022-08-11T23:45:58.600Z,16.59
2022-08-11T23:48:15.740Z,16.55
2022-08-11T23:50:32.855Z,16.52
2022-08-11T23:52:52.056Z,16.49
2022-08-11T23:55:09.479Z,16.47
2022-08-11T23:57:26.492Z,16.39
2022-08-11T23:59:43.538Z,16.40
